Theresa, Wisconsin
Current Conditions -  °F | °C
As of 10:35 AM on Tuesday 21 Oct 2014 (Local Time) from KUNU Reporting Station
Overcast Overcast  
Wind Chill: 41°   Ceiling: 2200
Heat Index: 44°   Visibility: 10mi
Dew Point: 37°   Wind: 7mph
Humidity: 75%   Direction: 360°N
Pressure: 30.23"   Gusts: NA
Location:  43.52°N, 88.45°W
Report Text: KUNU 211535Z AUTO 36006KT 10SM OVC022 07/03 A3023 RMK AO2 T00690028
Loading
Personal Weather Stations






























Interactive Weather Map
Tropical Storm Tracking
New forecast layout! Learn more

10-Day Weather Forecast

Advertisements
Track Severe Weather on mobile